Terminal Aerodrome Forecast
Issued by NWS

Current Version | Previous Version | Text Only | Print | Product List | Glossary On
Versions: 1 2 3 4 5 6 7 8 9 10 11 12 13 14 15 16 17 18 19 20
000
FTUS42 KFFC 201700
TAFFTY
TAF
KFTY 201734Z 2018/2118 05010G20KT P6SM SKC
     FM202100 07008G16KT P6SM SKC
     FM210000 06005KT P6SM SKC
     FM211500 24005KT P6SM SCT250=

USA.gov is the U.S. government's official web portal to all federal, state and local government web resources and services.